Observation data for Wolfforth on 05/15/2018      Previous  Date  Next       Current Mesonet Observations  Soil Data  Daily Summary Page  Observations in Plain Language
KWOS 150500Z 14012G18KT 23/12 A2995 RMK A01 T02270124  RH  054%=      5-min Rain = 0
KWOS 150505Z 14012KT 23/12 A2995 RMK A01 T02270124  RH  054%=      5-min Rain = 0
KWOS 150510Z 15011KT 23/12 A2995 RMK A01 T02260124  RH  055%=      5-min Rain = 0
KWOS 150515Z 14011KT 23/13 A2995 RMK A01 T02250125  RH  055%=      5-min Rain = 0
KWOS 150520Z 14011KT 22/13 A2995 RMK A01 T02240125  RH  056%=      5-min Rain = 0
KWOS 150525Z 14011KT 22/13 A2995 RMK A01 T02230127  RH  057%=      5-min Rain = 0
KWOS 150530Z 15011KT 22/13 A2995 RMK A01 T02220128  RH  057%=      5-min Rain = 0
KWOS 150535Z 16010KT 22/13 A2995 RMK A01 T02220133  RH  059%=      5-min Rain = 0
KWOS 150540Z 16012KT 22/14 A2995 RMK A01 T02210136  RH  061%=      5-min Rain = 0
KWOS 150545Z 17012KT 22/14 A2995 RMK A01 T02200140  RH  063%=      5-min Rain = 0
KWOS 150550Z 16013G19KT 22/14 A2995 RMK A01 T02190144  RH  065%=      5-min Rain = 0
KWOS 150555Z 16013KT 22/15 A2995 RMK A01 T02180147  RH  067%=      5-min Rain = 0
KWOS 150600Z 17012KT 22/15 A2995 RMK A01 T02170151  RH  069%=      5-min Rain = 0
KWOS 150605Z 17013G19KT 22/16 A2996 RMK A01 T02170155  RH  071%=      5-min Rain = 0
KWOS 150610Z 18015G20KT 22/16 A2996 RMK A01 T02180159  RH  073%=      5-min Rain = 0
KWOS 150615Z 18015G20KT 22/16 A2996 RMK A01 T02180162  RH  074%=      5-min Rain = 0
KWOS 150620Z 18016G22KT 22/16 A2996 RMK A01 T02180163  RH  074%=      5-min Rain = 0
KWOS 150625Z 18015KT 22/16 A2996 RMK A01 T02170163  RH  075%=      5-min Rain = 0
KWOS 150630Z 18014G19KT 22/16 A2996 RMK A01 T02170163  RH  075%=      5-min Rain = 0
KWOS 150635Z 18015G20KT 22/16 A2996 RMK A01 T02160163  RH  075%=      5-min Rain = 0
KWOS 150640Z 17016G21KT 22/16 A2996 RMK A01 T02160164  RH  076%=      5-min Rain = 0
KWOS 150645Z 17014G20KT 22/16 A2996 RMK A01 T02150164  RH  076%=      5-min Rain = 0
KWOS 150650Z 17014KT 21/16 A2996 RMK A01 T02140164  RH  077%=      5-min Rain = 0
KWOS 150655Z 18015G20KT 21/16 A2996 RMK A01 T02120163  RH  077%=      5-min Rain = 0
KWOS 150700Z 18016KT 21/16 A2997 RMK A01 T02120163  RH  077%=      5-min Rain = 0
KWOS 150705Z 18017KT 21/16 A2997 RMK A01 T02110163  RH  078%=      5-min Rain = 0
KWOS 150710Z 17015G22KT 21/16 A2996 RMK A01 T02100163  RH  078%=      5-min Rain = 0
KWOS 150715Z 18014G22KT 21/16 A2996 RMK A01 T02090163  RH  079%=      5-min Rain = 0
KWOS 150720Z 18016G22KT 21/16 A2996 RMK A01 T02090163  RH  079%=      5-min Rain = 0
KWOS 150725Z 18015KT 21/16 A2996 RMK A01 T02080163  RH  079%=      5-min Rain = 0
KWOS 150730Z 19016G22KT 21/16 A2996 RMK A01 T02070162  RH  079%=      5-min Rain = 0
KWOS 150735Z 18016KT 21/16 A2996 RMK A01 T02060161  RH  079%=      5-min Rain = 0
KWOS 150740Z 18016G21KT 21/16 A2996 RMK A01 T02060161  RH  079%=      5-min Rain = 0
KWOS 150745Z 18017G23KT 21/16 A2996 RMK A01 T02050160  RH  079%=      5-min Rain = 0
KWOS 150750Z 18016G23KT 20/16 A2996 RMK A01 T02040160  RH  079%=      5-min Rain = 0
KWOS 150755Z 18016G21KT 20/16 A2996 RMK A01 T02030159  RH  079%=      5-min Rain = 0
KWOS 150800Z 18017KT 20/16 A2996 RMK A01 T02030159  RH  080%=      5-min Rain = 0
KWOS 150805Z 18016KT 20/16 A2996 RMK A01 T02020159  RH  080%=      5-min Rain = 0
KWOS 150810Z 18015KT 20/16 A2997 RMK A01 T02010159  RH  080%=      5-min Rain = 0
KWOS 150815Z 18014G19KT 20/16 A2996 RMK A01 T02010159  RH  080%=      5-min Rain = 0
KWOS 150820Z 19014KT 20/16 A2996 RMK A01 T02010159  RH  081%=      5-min Rain = 0
KWOS 150825Z 18015G21KT 20/16 A2996 RMK A01 T02010159  RH  081%=      5-min Rain = 0
KWOS 150830Z 18016G22KT 20/16 A2996 RMK A01 T02000160  RH  081%=      5-min Rain = 0
KWOS 150835Z 18016KT 20/16 A2996 RMK A01 T02000160  RH  082%=      5-min Rain = 0
KWOS 150840Z 18014G19KT 20/16 A2996 RMK A01 T01990160  RH  082%=      5-min Rain = 0
KWOS 150845Z 19014G19KT 20/16 A2996 RMK A01 T01990161  RH  082%=      5-min Rain = 0
KWOS 150850Z 19016G21KT 20/16 A2996 RMK A01 T02000162  RH  083%=      5-min Rain = 0
KWOS 150855Z 19014G21KT 20/16 A2996 RMK A01 T01990163  RH  084%=      5-min Rain = 0
KWOS 150900Z 18015G22KT 20/16 A2996 RMK A01 T01980164  RH  085%=      5-min Rain = 0
KWOS 150905Z 18015G20KT 20/17 A2996 RMK A01 T01980165  RH  085%=      5-min Rain = 0
KWOS 150910Z 18016G21KT 20/17 A2996 RMK A01 T01970165  RH  086%=      5-min Rain = 0
KWOS 150915Z 18015G20KT 20/17 A2996 RMK A01 T01970165  RH  086%=      5-min Rain = 0
KWOS 150920Z 19015KT 20/17 A2996 RMK A01 T01960165  RH  086%=      5-min Rain = 0
KWOS 150925Z 19015G20KT 20/17 A2996 RMK A01 T01960165  RH  086%=      5-min Rain = 0
KWOS 150930Z 19015KT 20/17 A2995 RMK A01 T01950165  RH  087%=      5-min Rain = 0
KWOS 150935Z 19015KT 20/17 A2995 RMK A01 T01950165  RH  087%=      5-min Rain = 0
KWOS 150940Z 19014KT 19/16 A2995 RMK A01 T01940164  RH  087%=      5-min Rain = 0
KWOS 150945Z 19014KT 19/16 A2995 RMK A01 T01940164  RH  087%=      5-min Rain = 0
KWOS 150950Z 19014KT 19/16 A2995 RMK A01 T01930164  RH  087%=      5-min Rain = 0
KWOS 150955Z 19013KT 19/16 A2995 RMK A01 T01920164  RH  088%=      5-min Rain = 0
KWOS 151000Z 19013KT 19/16 A2995 RMK A01 T01920163  RH  088%=      5-min Rain = 0
KWOS 151005Z 19014KT 19/16 A2995 RMK A01 T01920164  RH  088%=      5-min Rain = 0
KWOS 151010Z 19013KT 19/16 A2995 RMK A01 T01910163  RH  088%=      5-min Rain = 0
KWOS 151015Z 19013G18KT 19/16 A2995 RMK A01 T01910163  RH  088%=      5-min Rain = 0
KWOS 151020Z 20012KT 19/16 A2995 RMK A01 T01900162  RH  088%=      5-min Rain = 0
KWOS 151025Z 20012KT 19/16 A2995 RMK A01 T01890163  RH  089%=      5-min Rain = 0
KWOS 151030Z 20012G17KT 19/16 A2995 RMK A01 T01900163  RH  089%=      5-min Rain = 0
KWOS 151035Z 19014KT 19/16 A2995 RMK A01 T01900164  RH  089%=      5-min Rain = 0
KWOS 151040Z 20014KT 19/16 A2995 RMK A01 T01900164  RH  090%=      5-min Rain = 0
KWOS 151045Z 20014G19KT 19/17 A2996 RMK A01 T01900165  RH  090%=      5-min Rain = 0
KWOS 151050Z 20013G18KT 19/17 A2996 RMK A01 T01900166  RH  090%=      5-min Rain = 0
KWOS 151055Z 20014G19KT 19/17 A2996 RMK A01 T01900166  RH  091%=      5-min Rain = 0
KWOS 151100Z 20015KT 19/17 A2996 RMK A01 T01900166  RH  091%=      5-min Rain = 0
KWOS 151105Z 20015KT 19/17 A2996 RMK A01 T01900167  RH  091%=      5-min Rain = 0
KWOS 151110Z 20014KT 19/17 A2996 RMK A01 T01890167  RH  091%=      5-min Rain = 0
KWOS 151115Z 21014KT 19/17 A2995 RMK A01 T01890167  RH  091%=      5-min Rain = 0
KWOS 151120Z 21012KT 19/17 A2996 RMK A01 T01880166  RH  092%=      5-min Rain = 0
KWOS 151125Z 20012KT 19/17 A2996 RMK A01 T01870166  RH  092%=      5-min Rain = 0
KWOS 151130Z 20012KT 19/17 A2996 RMK A01 T01870166  RH  092%=      5-min Rain = 0
KWOS 151135Z 21011KT 19/17 A2996 RMK A01 T01860166  RH  093%=      5-min Rain = 0
KWOS 151140Z 21011KT 19/17 A2996 RMK A01 T01870167  RH  093%=      5-min Rain = 0
KWOS 151145Z 21011KT 19/17 A2996 RMK A01 T01890168  RH  092%=      5-min Rain = 0
KWOS 151150Z 21011KT 19/17 A2996 RMK A01 T01900169  RH  092%=      5-min Rain = 0
KWOS 151155Z 21012KT 19/17 A2996 RMK A01 T01910169  RH  092%=      5-min Rain = 0
KWOS 151200Z 21012KT 19/17 A2996 RMK A01 T01920170  RH  091%=      5-min Rain = 0
KWOS 151205Z 20011KT 19/17 A2997 RMK A01 T01910169  RH  092%=      5-min Rain = 0
KWOS 151210Z 20011KT 19/17 A2997 RMK A01 T01910169  RH  092%=      5-min Rain = 0
KWOS 151215Z 20011KT 19/17 A2997 RMK A01 T01910170  RH  092%=      5-min Rain = 0
KWOS 151220Z 20011KT 19/17 A2997 RMK A01 T01930171  RH  092%=      5-min Rain = 0
KWOS 151225Z 20011KT 19/17 A2997 RMK A01 T01940172  RH  091%=      5-min Rain = 0
KWOS 151230Z 20012G18KT 20/17 A2998 RMK A01 T01960173  RH  091%=      5-min Rain = 0
KWOS 151235Z 20013KT 20/17 A2998 RMK A01 T01990174  RH  090%=      5-min Rain = 0
KWOS 151240Z 21014KT 20/17 A2998 RMK A01 T02010174  RH  089%=      5-min Rain = 0
KWOS 151245Z 21014G20KT 20/17 A2998 RMK A01 T02020174  RH  089%=      5-min Rain = 0
KWOS 151250Z 21016G21KT 20/17 A2998 RMK A01 T02020173  RH  088%=      5-min Rain = 0
KWOS 151255Z 21017G23KT 20/17 A2998 RMK A01 T02010172  RH  088%=      5-min Rain = 0
KWOS 151300Z 22016KT 20/17 A2998 RMK A01 T02020172  RH  087%=      5-min Rain = 0
KWOS 151305Z 21017G22KT 20/17 A2998 RMK A01 T02030172  RH  087%=      5-min Rain = 0
KWOS 151310Z 21017KT 21/17 A2998 RMK A01 T02050173  RH  086%=      5-min Rain = 0
KWOS 151315Z 21016G21KT 21/17 A2998 RMK A01 T02060173  RH  085%=      5-min Rain = 0
KWOS 151320Z 22019G24KT 21/17 A2998 RMK A01 T02080172  RH  084%=      5-min Rain = 0
KWOS 151325Z 22017G23KT 21/17 A2998 RMK A01 T02090172  RH  083%=      5-min Rain = 0
KWOS 151330Z 22019KT 21/17 A2998 RMK A01 T02090170  RH  082%=      5-min Rain = 0
KWOS 151335Z 22018KT 21/17 A2998 RMK A01 T02110170  RH  081%=      5-min Rain = 0
KWOS 151340Z 22018KT 21/17 A2998 RMK A01 T02140170  RH  080%=      5-min Rain = 0
KWOS 151345Z 22016G21KT 22/17 A2998 RMK A01 T02160170  RH  079%=      5-min Rain = 0
KWOS 151350Z 23018KT 22/17 A2998 RMK A01 T02170169  RH  078%=      5-min Rain = 0
KWOS 151355Z 22014G20KT 22/17 A2998 RMK A01 T02210170  RH  076%=      5-min Rain = 0
KWOS 151400Z 22015KT 22/17 A2998 RMK A01 T02220170  RH  076%=      5-min Rain = 0
KWOS 151405Z 23017KT 23/17 A2998 RMK A01 T02260169  RH  074%=      5-min Rain = 0
KWOS 151410Z 22017KT 23/17 A2998 RMK A01 T02260167  RH  073%=      5-min Rain = 0
KWOS 151415Z 23016KT 23/17 A2998 RMK A01 T02310168  RH  071%=      5-min Rain = 0
KWOS 151420Z 23017KT 23/17 A2997 RMK A01 T02320167  RH  070%=      5-min Rain = 0
KWOS 151425Z 23017KT 24/17 A2997 RMK A01 T02360166  RH  068%=      5-min Rain = 0
KWOS 151430Z 23016G21KT 24/17 A2998 RMK A01 T02400165  RH  066%=      5-min Rain = 0
KWOS 151435Z 23018KT 24/16 A2998 RMK A01 T02410164  RH  065%=      5-min Rain = 0
KWOS 151440Z 23017KT 24/16 A2998 RMK A01 T02440163  RH  063%=      5-min Rain = 0
KWOS 151445Z 23016KT 25/16 A2998 RMK A01 T02500162  RH  061%=      5-min Rain = 0
KWOS 151450Z 23016KT 25/16 A2998 RMK A01 T02540162  RH  059%=      5-min Rain = 0
KWOS 151455Z 24016KT 26/16 A2998 RMK A01 T02560158  RH  057%=      5-min Rain = 0
KWOS 151500Z 23012G17KT 26/16 A2998 RMK A01 T02570158  RH  057%=      5-min Rain = 0
KWOS 151505Z 28011KT 26/16 A30 RMK A01 T02590156  RH  056%=      5-min Rain = 0
KWOS 151510Z 28012G17KT 26/15 A30 RMK A01 T02620151  RH  053%=      5-min Rain = 0
KWOS 151515Z 25010KT 26/15 A2999 RMK A01 T02640148  RH  051%=      5-min Rain = 0
KWOS 151520Z 29011G17KT 27/15 A3001 RMK A01 T02670148  RH  050%=      5-min Rain = 0
KWOS 151525Z 26011G20KT 27/14 A30 RMK A01 T02700144  RH  048%=      5-min Rain = 0
KWOS 151530Z 28008KT 27/14 A3001 RMK A01 T02680142  RH  048%=      5-min Rain = 0
KWOS 151535Z 31008KT 27/14 A3001 RMK A01 T02700143  RH  048%=      5-min Rain = 0
KWOS 151540Z 29011G16KT 27/14 A3001 RMK A01 T02730140  RH  046%=      5-min Rain = 0
KWOS 151545Z 29011G19KT 28/14 A3001 RMK A01 T02760136  RH  044%=      5-min Rain = 0
KWOS 151550Z 29012KT 28/13 A3001 RMK A01 T02820129  RH  040%=      5-min Rain = 0
KWOS 151555Z 30012G17KT 28/13 A3002 RMK A01 T02810131  RH  041%=      5-min Rain = 0
KWOS 151600Z 30012G18KT 28/12 A3002 RMK A01 T02830121  RH  038%=      5-min Rain = 0
KWOS 151605Z 31013G18KT 28/12 A3003 RMK A01 T02840121  RH  038%=      5-min Rain = 0
KWOS 151610Z 33012G17KT 28/12 A3003 RMK A01 T02840116  RH  037%=      5-min Rain = 0
KWOS 151615Z 34011G16KT 29/12 A3003 RMK A01 T02900121  RH  036%=      5-min Rain = 0
KWOS 151620Z 35013G19KT 29/12 A3003 RMK A01 T02910120  RH  036%=      5-min Rain = 0
KWOS 151625Z 35009G16KT 29/12 A3003 RMK A01 T02860124  RH  038%=      5-min Rain = 0
KWOS 151630Z 35010G17KT 29/13 A3003 RMK A01 T02900125  RH  038%=      5-min Rain = 0
KWOS 151635Z 35010KT 29/13 A3003 RMK A01 T02860125  RH  039%=      5-min Rain = 0
KWOS 151640Z 36011G16KT 29/13 A3003 RMK A01 T02880127  RH  038%=      5-min Rain = 0
KWOS 151645Z 01011KT 29/13 A3003 RMK A01 T02900127  RH  038%=      5-min Rain = 0
KWOS 151650Z 00009G14KT 29/13 A3003 RMK A01 T02870128  RH  039%=      5-min Rain = 0
KWOS 151655Z 04005G11KT 29/13 A3002 RMK A01 T02850127  RH  039%=      5-min Rain = 0
KWOS 151700Z 33009G15KT 29/12 A3002 RMK A01 T02890122  RH  037%=      5-min Rain = 0
KWOS 151705Z 31007G12KT 29/12 A3002 RMK A01 T02890117  RH  036%=      5-min Rain = 0
KWOS 151710Z 34006G11KT 29/12 A3002 RMK A01 T02880118  RH  036%=      5-min Rain = 0
KWOS 151715Z 00004KT 29/12 A3002 RMK A01 T02900120  RH  036%=      5-min Rain = 0
KWOS 151720Z 02006KT 29/12 A3002 RMK A01 T02920122  RH  036%=      5-min Rain = 0
KWOS 151725Z 34010KT 30/12 A3002 RMK A01 T02970121  RH  035%=      5-min Rain = 0
KWOS 151730Z 32004KT 29/12 A3002 RMK A01 T02890119  RH  036%=      5-min Rain = 0
KWOS 151735Z 05003KT 29/12 A3002 RMK A01 T02940121  RH  036%=      5-min Rain = 0
KWOS 151740Z 02004G9KT 30/13 A3002 RMK A01 T03010125  RH  035%=      5-min Rain = 0
KWOS 151745Z 02004G9KT 30/12 A3002 RMK A01 T02990119  RH  034%=      5-min Rain = 0
KWOS 151750Z 02006KT 30/11 A3002 RMK A01 T03010114  RH  033%=      5-min Rain = 0
KWOS 151755Z 29005KT 30/11 A3002 RMK A01 T03020109  RH  032%=      5-min Rain = 0
KWOS 151800Z 33005G10KT 30/11 A3002 RMK A01 T03010108  RH  031%=      5-min Rain = 0
KWOS 151805Z 36004KT 30/11 A3002 RMK A01 T02990113  RH  033%=      5-min Rain = 0
KWOS 151810Z 36004KT 30/11 A3001 RMK A01 T03000109  RH  032%=      5-min Rain = 0
KWOS 151815Z 29004KT 31/10 A3001 RMK A01 T03050099  RH  029%=      5-min Rain = 0
KWOS 151820Z 29003KT 31/10 A3001 RMK A01 T03050097  RH  029%=      5-min Rain = 0
KWOS 151825Z 33003KT 31/10 A3001 RMK A01 T03060103  RH  030%=      5-min Rain = 0
KWOS 151830Z 03003KT 31/11 A3001 RMK A01 T03110110  RH  030%=      5-min Rain = 0
KWOS 151835Z 02006KT 31/10 A30 RMK A01 T03130104  RH  028%=      5-min Rain = 0
KWOS 151840Z 01006KT 31/10 A30 RMK A01 T03110103  RH  029%=      5-min Rain = 0
KWOS 151845Z 02005KT 31/10 A30 RMK A01 T03100102  RH  028%=      5-min Rain = 0
KWOS 151850Z 34005KT 31/10 A30 RMK A01 T03100099  RH  028%=      5-min Rain = 0
KWOS 151855Z 23002KT 31/10 A30 RMK A01 T03090100  RH  028%=      5-min Rain = 0
KWOS 151900Z 24004KT 31/10 A30 RMK A01 T03140104  RH  028%=      5-min Rain = 0
KWOS 151905Z 05005KT 32/11 A30 RMK A01 T03160107  RH  028%=      5-min Rain = 0
KWOS 151910Z 06007G12KT 31/10 A30 RMK A01 T03130104  RH  028%=      5-min Rain = 0
KWOS 151915Z 04004KT 32/10 A30 RMK A01 T03170099  RH  027%=      5-min Rain = 0
KWOS 151920Z 08006KT 32/10 A2999 RMK A01 T03210099  RH  026%=      5-min Rain = 0
KWOS 151925Z 07004KT 32/10 A2999 RMK A01 T03210096  RH  026%=      5-min Rain = 0
KWOS 151930Z 33003KT 32/09 A2999 RMK A01 T03210091  RH  025%=      5-min Rain = 0
KWOS 151935Z 30002KT 32/09 A2999 RMK A01 T03170088  RH  025%=      5-min Rain = 0
KWOS 151940Z 02005G10KT 32/08 A2998 RMK A01 T03210080  RH  023%=      5-min Rain = 0
KWOS 151945Z 33004KT 32/09 A2998 RMK A01 T03210092  RH  025%=      5-min Rain = 0
KWOS 151950Z 13008KT 33/10 A2998 RMK A01 T03330102  RH  025%=      5-min Rain = 0
KWOS 151955Z 07006KT 32/10 A2998 RMK A01 T03240103  RH  027%=      5-min Rain = 0
KWOS 152000Z 07004KT 33/10 A2998 RMK A01 T03290101  RH  026%=      5-min Rain = 0
KWOS 152005Z 06009G17KT 33/10 A2997 RMK A01 T03270104  RH  026%=      5-min Rain = 0
KWOS 152010Z 09007G15KT 33/10 A2997 RMK A01 T03280102  RH  026%=      5-min Rain = 0
KWOS 152015Z 07006KT 33/10 A2997 RMK A01 T03300103  RH  026%=      5-min Rain = 0
KWOS 152020Z 04009G14KT 33/10 A2997 RMK A01 T03280103  RH  026%=      5-min Rain = 0
KWOS 152025Z 05010G16KT 33/10 A2997 RMK A01 T03280103  RH  026%=      5-min Rain = 0
KWOS 152030Z 35004KT 32/10 A2996 RMK A01 T03180101  RH  027%=      5-min Rain = 0
KWOS 152035Z 00008KT 32/10 A2996 RMK A01 T03190096  RH  026%=      5-min Rain = 0
KWOS 152040Z 03006G11KT 32/10 A2996 RMK A01 T03200099  RH  027%=      5-min Rain = 0
KWOS 152045Z 06003G11KT 33/10 A2996 RMK A01 T03260099  RH  026%=      5-min Rain = 0
KWOS 152050Z 09008KT 33/10 A2995 RMK A01 T03270097  RH  025%=      5-min Rain = 0
KWOS 152055Z 08007KT 32/09 A2995 RMK A01 T03230093  RH  025%=      5-min Rain = 0
KWOS 152100Z 06008KT 32/09 A2994 RMK A01 T03240093  RH  025%=      5-min Rain = 0
KWOS 152105Z 05006KT 33/10 A2994 RMK A01 T03320096  RH  024%=      5-min Rain = 0
KWOS 152110Z 08011G17KT 34/09 A2994 RMK A01 T03350094  RH  024%=      5-min Rain = 0
KWOS 152115Z 10006KT 33/09 A2994 RMK A01 T03260090  RH  024%=      5-min Rain = 0
KWOS 152120Z 08011KT 33/11 A2993 RMK A01 T03250109  RH  028%=      5-min Rain = 0
KWOS 152125Z 07008G15KT 33/11 A2993 RMK A01 T03260109  RH  027%=      5-min Rain = 0
KWOS 152130Z 07006G13KT 32/11 A2993 RMK A01 T03230105  RH  027%=      5-min Rain = 0
KWOS 152135Z 07006G11KT 32/10 A2993 RMK A01 T03210104  RH  027%=      5-min Rain = 0
KWOS 152140Z 06011G16KT 33/12 A2992 RMK A01 T03320116  RH  028%=      5-min Rain = 0
KWOS 152145Z 08009G15KT 33/12 A2992 RMK A01 T03280115  RH  028%=      5-min Rain = 0
KWOS 152150Z 08013G20KT 32/12 A2992 RMK A01 T03200116  RH  030%=      5-min Rain = 0
KWOS 152155Z 08010KT 32/12 A2992 RMK A01 T03190116  RH  030%=      5-min Rain = 0
KWOS 152200Z 08009G16KT 33/12 A2992 RMK A01 T03280115  RH  028%=      5-min Rain = 0
KWOS 152205Z 07010G17KT 33/11 A2992 RMK A01 T03300113  RH  028%=      5-min Rain = 0
KWOS 152210Z 08012KT 32/11 A2992 RMK A01 T03200109  RH  028%=      5-min Rain = 0
KWOS 152215Z 07008KT 32/11 A2992 RMK A01 T03170107  RH  028%=      5-min Rain = 0
KWOS 152220Z 09011G26KT 32/11 A2992 RMK A01 T03150109  RH  029%=      5-min Rain = 0
KWOS 152225Z 14022G31KT 29/09 A2993 RMK A01 T02850092  RH  031%=      5-min Rain = 0
KWOS 152230Z 13021G27KT 28/10 A2992 RMK A01 T02760098  RH  034%=      5-min Rain = 0
KWOS 152235Z 10016G22KT 26/12 A2992 RMK A01 T02550121  RH  045%=      5-min Rain = 0.03
KWOS 152240Z 06013G19KT 26/11 A2992 RMK A01 T02590111  RH  041%=      5-min Rain = 0.01
KWOS 152245Z 08013G18KT 26/14 A2991 RMK A01 T02590136  RH  049%=      5-min Rain = 0
KWOS 152250Z 09015G24KT 26/15 A2992 RMK A01 T02590145  RH  052%=      5-min Rain = 0
KWOS 152255Z 09020G25KT 24/16 A2991 RMK A01 T02430156  RH  061%=      5-min Rain = 0
KWOS 152300Z 08020G28KT 23/15 A2991 RMK A01 T02310145  RH  061%=      5-min Rain = 0
KWOS 152305Z 08014G19KT 24/14 A2991 RMK A01 T02390137  RH  055%=      5-min Rain = 0
KWOS 152310Z 08013KT 24/14 A2991 RMK A01 T02400141  RH  056%=      5-min Rain = 0
KWOS 152315Z 10014G19KT 24/16 A2991 RMK A01 T02440157  RH  061%=      5-min Rain = 0
KWOS 152320Z 10015G20KT 24/17 A299 RMK A01 T02350165  RH  068%=      5-min Rain = 0
KWOS 152325Z 10012G17KT 24/16 A299 RMK A01 T02350158  RH  065%=      5-min Rain = 0
KWOS 152330Z 10012G17KT 24/16 A299 RMK A01 T02390158  RH  063%=      5-min Rain = 0
KWOS 152335Z 09012KT 24/16 A299 RMK A01 T02400161  RH  064%=      5-min Rain = 0
KWOS 152340Z 08012KT 24/17 A2991 RMK A01 T02440165  RH  064%=      5-min Rain = 0
KWOS 152345Z 08012KT 25/17 A2991 RMK A01 T02490167  RH  063%=      5-min Rain = 0
KWOS 152350Z 07017G23KT 25/17 A2992 RMK A01 T02540165  RH  061%=      5-min Rain = 0
KWOS 152355Z 07016KT 25/16 A2992 RMK A01 T02490158  RH  060%=      5-min Rain = 0
KWOS 160000Z 08014KT 25/16 A2992 RMK A01 T02480160  RH  061%=      5-min Rain = 0
KWOS 160005Z 08012KT 25/17 A2992 RMK A01 T02510165  RH  062%=      5-min Rain = 0
KWOS 160010Z 07015KT 25/17 A2992 RMK A01 T02540165  RH  060%=      5-min Rain = 0
KWOS 160015Z 05016KT 25/17 A2992 RMK A01 T02520165  RH  061%=      5-min Rain = 0
KWOS 160020Z 06015G20KT 25/16 A2992 RMK A01 T02510163  RH  061%=      5-min Rain = 0
KWOS 160025Z 06015KT 25/16 A2992 RMK A01 T02510159  RH  059%=      5-min Rain = 0
KWOS 160030Z 05015G20KT 25/16 A2992 RMK A01 T02520157  RH  058%=      5-min Rain = 0
KWOS 160035Z 04015G20KT 24/15 A2993 RMK A01 T02400150  RH  060%=      5-min Rain = 0
KWOS 160040Z 06012KT 23/15 A2992 RMK A01 T02340151  RH  062%=      5-min Rain = 0
KWOS 160045Z 07012KT 23/14 A2991 RMK A01 T02340144  RH  059%=      5-min Rain = 0
KWOS 160050Z 06012KT 24/14 A2991 RMK A01 T02360142  RH  058%=      5-min Rain = 0
KWOS 160055Z 05011KT 24/14 A2991 RMK A01 T02350144  RH  059%=      5-min Rain = 0
KWOS 160100Z 05010KT 23/14 A2991 RMK A01 T02320141  RH  059%=      5-min Rain = 0
KWOS 160105Z 07010KT 23/14 A2991 RMK A01 T02310143  RH  060%=      5-min Rain = 0
KWOS 160110Z 09008KT 23/15 A2991 RMK A01 T02300146  RH  062%=      5-min Rain = 0
KWOS 160115Z 10006KT 23/15 A2991 RMK A01 T02270150  RH  065%=      5-min Rain = 0
KWOS 160120Z 09004KT 23/16 A2991 RMK A01 T02260155  RH  067%=      5-min Rain = 0
KWOS 160125Z 10004KT 23/16 A2992 RMK A01 T02260157  RH  068%=      5-min Rain = 0
KWOS 160130Z 14005KT 22/16 A2993 RMK A01 T02240157  RH  069%=      5-min Rain = 0
KWOS 160135Z 10002KT 23/16 A2994 RMK A01 T02250157  RH  069%=      5-min Rain = 0
KWOS 160140Z 09003KT 22/16 A2994 RMK A01 T02240157  RH  069%=      5-min Rain = 0
KWOS 160145Z 09004KT 22/16 A2994 RMK A01 T02220155  RH  069%=      5-min Rain = 0
KWOS 160150Z 10003KT 22/16 A2994 RMK A01 T02200155  RH  070%=      5-min Rain = 0
KWOS 160155Z 11003KT 22/16 A2995 RMK A01 T02180155  RH  071%=      5-min Rain = 0
KWOS 160200Z 10004KT 21/16 A2995 RMK A01 T02140155  RH  072%=      5-min Rain = 0
KWOS 160205Z 10005KT 21/16 A2995 RMK A01 T02090155  RH  075%=      5-min Rain = 0
KWOS 160210Z 10005KT 21/16 A2996 RMK A01 T02050156  RH  077%=      5-min Rain = 0
KWOS 160215Z 08005KT 20/16 A2996 RMK A01 T02030158  RH  079%=      5-min Rain = 0
KWOS 160220Z 06005KT 20/16 A2997 RMK A01 T02020160  RH  081%=      5-min Rain = 0
KWOS 160225Z 08006KT 21/16 A2997 RMK A01 T02050163  RH  081%=      5-min Rain = 0
KWOS 160230Z 08006KT 21/16 A2997 RMK A01 T02050163  RH  081%=      5-min Rain = 0
KWOS 160235Z 08006KT 21/16 A2998 RMK A01 T02060163  RH  080%=      5-min Rain = 0
KWOS 160240Z 07005KT 21/16 A2998 RMK A01 T02060164  RH  081%=      5-min Rain = 0
KWOS 160245Z 06006KT 21/17 A2998 RMK A01 T02080165  RH  080%=      5-min Rain = 0
KWOS 160250Z 07005KT 21/17 A2998 RMK A01 T02090165  RH  080%=      5-min Rain = 0
KWOS 160255Z 10004KT 21/16 A2999 RMK A01 T02100164  RH  079%=      5-min Rain = 0
KWOS 160300Z 11004KT 21/16 A30 RMK A01 T02080164  RH  080%=      5-min Rain = 0
KWOS 160305Z 04007KT 21/16 A3001 RMK A01 T02080163  RH  079%=      5-min Rain = 0
KWOS 160310Z 03007KT 21/16 A3001 RMK A01 T02110163  RH  077%=      5-min Rain = 0
KWOS 160315Z 04013G21KT 21/16 A3001 RMK A01 T02140158  RH  073%=      5-min Rain = 0
KWOS 160320Z 06008KT 22/16 A3001 RMK A01 T02170155  RH  071%=      5-min Rain = 0
KWOS 160325Z 07007KT 21/16 A3001 RMK A01 T02120158  RH  075%=      5-min Rain = 0
KWOS 160330Z 05009KT 21/16 A3001 RMK A01 T02090158  RH  076%=      5-min Rain = 0
KWOS 160335Z 04009KT 21/16 A3002 RMK A01 T02070156  RH  076%=      5-min Rain = 0
KWOS 160340Z 05012KT 20/15 A3002 RMK A01 T02040153  RH  076%=      5-min Rain = 0
KWOS 160345Z 07011KT 20/15 A3002 RMK A01 T02010149  RH  075%=      5-min Rain = 0
KWOS 160350Z 08010KT 20/15 A3002 RMK A01 T01980146  RH  075%=      5-min Rain = 0
KWOS 160355Z 06010KT 20/15 A3002 RMK A01 T01960145  RH  076%=      5-min Rain = 0
KWOS 160400Z 05011KT 20/14 A3003 RMK A01 T01950144  RH  075%=      5-min Rain = 0
KWOS 160405Z 06011KT 20/14 A3003 RMK A01 T01950143  RH  075%=      5-min Rain = 0
KWOS 160410Z 07011KT 20/14 A3003 RMK A01 T01950140  RH  074%=      5-min Rain = 0
KWOS 160415Z 08012KT 19/14 A3002 RMK A01 T01940140  RH  074%=      5-min Rain = 0
KWOS 160420Z 08013KT 19/14 A3003 RMK A01 T01930139  RH  074%=      5-min Rain = 0
KWOS 160425Z 07014G19KT 19/14 A3002 RMK A01 T01940137  RH  073%=      5-min Rain = 0
KWOS 160430Z 08014G19KT 19/14 A3003 RMK A01 T01940136  RH  072%=      5-min Rain = 0
KWOS 160435Z 08015KT 19/14 A3003 RMK A01 T01930135  RH  072%=      5-min Rain = 0
KWOS 160440Z 08014KT 19/13 A3002 RMK A01 T01930133  RH  071%=      5-min Rain = 0
KWOS 160445Z 08012G17KT 19/13 A3002 RMK A01 T01910133  RH  072%=      5-min Rain = 0
KWOS 160450Z 08012KT 19/13 A3002 RMK A01 T01900130  RH  071%=      5-min Rain = 0
KWOS 160455Z 09010KT 19/13 A3002 RMK A01 T01870130  RH  072%=      5-min Rain = 0

Page generated in 0.0107 seconds.